Terminal Aerodrome Forecast
Issued by NWS Portland, OR

Home | Current Version | Previous Version | Text Only | Print | Product List | Glossary On
Versions: 1 2 3 4 5 6 7 8 9 10 11 12 13 14 15 16 17
000
FTUS46 KPQR 251741
TAFSLE
TAF
KSLE 251741Z 2518/2618 00000KT 3SM BR BKN004
     FM251830 24003KT P6SM SCT060
     FM260200 VRB04KT P6SM OVC060
     FM261200 18011KT P6SM -RA OVC025=

USA.gov is the U.S. government's official web portal to all federal, state and local government web resources and services.